sensor_id;sensor_type;location;lat;lon;timestamp;pressure;altitude;pressure_sealevel;temperature;humidity
35045;BME280;21231;48.394;34.964;2022-09-13T00:01:29;99029.63;;;16.34;100.00
35045;BME280;21231;48.394;34.964;2022-09-13T00:04:15;99034.84;;;16.35;100.00
35045;BME280;21231;48.394;34.964;2022-09-13T00:07:01;99031.34;;;16.32;100.00
35045;BME280;21231;48.394;34.964;2022-09-13T00:09:48;99036.47;;;16.27;100.00
35045;BME280;21231;48.394;34.964;2022-09-13T00:12:34;99037.41;;;16.32;100.00
35045;BME280;21231;48.394;34.964;2022-09-13T00:15:21;99028.81;;;16.35;100.00
35045;BME280;21231;48.394;34.964;2022-09-13T00:18:08;99031.50;;;16.43;100.00
35045;BME280;21231;48.394;34.964;2022-09-13T00:21:15;99029.94;;;16.54;100.00
35045;BME280;21231;48.394;34.964;2022-09-13T00:24:01;99023.03;;;16.56;100.00
35045;BME280;21231;48.394;34.964;2022-09-13T00:26:47;99018.63;;;16.54;100.00
35045;BME280;21231;48.394;34.964;2022-09-13T00:29:33;99014.31;;;16.53;100.00
35045;BME280;21231;48.394;34.964;2022-09-13T00:32:20;99011.78;;;16.59;100.00
35045;BME280;21231;48.394;34.964;2022-09-13T00:35:07;99009.28;;;16.63;100.00
35045;BME280;21231;48.394;34.964;2022-09-13T00:37:53;99003.13;;;16.57;100.00
35045;BME280;21231;48.394;34.964;2022-09-13T00:40:39;99006.69;;;16.65;100.00
35045;BME280;21231;48.394;34.964;2022-09-13T00:43:47;99003.19;;;16.63;100.00
35045;BME280;21231;48.394;34.964;2022-09-13T00:49:31;99000.75;;;16.77;100.00
35045;BME280;21231;48.394;34.964;2022-09-13T00:52:27;98992.06;;;16.76;100.00
35045;BME280;21231;48.394;34.964;2022-09-13T00:55:49;98992.91;;;16.74;100.00
35045;BME280;21231;48.394;34.964;2022-09-13T00:58:43;98998.94;;;16.70;100.00
35045;BME280;21231;48.394;34.964;2022-09-13T01:01:40;99001.59;;;16.74;100.00
35045;BME280;21231;48.394;34.964;2022-09-13T01:04:32;99006.84;;;16.79;100.00
35045;BME280;21231;48.394;34.964;2022-09-13T01:07:23;98999.03;;;16.79;100.00
35045;BME280;21231;48.394;34.964;2022-09-13T01:10:12;98987.81;;;16.85;100.00
35045;BME280;21231;48.394;34.964;2022-09-13T01:13:09;98992.22;;;16.90;100.00
35045;BME280;21231;48.394;34.964;2022-09-13T01:16:01;98995.72;;;16.93;100.00
35045;BME280;21231;48.394;34.964;2022-09-13T01:18:49;98995.78;;;16.97;100.00
35045;BME280;21231;48.394;34.964;2022-09-13T01:41:33;98995.94;;;17.11;100.00
35045;BME280;21231;48.394;34.964;2022-09-13T01:47:33;99000.22;;;17.08;100.00
35045;BME280;21231;48.394;34.964;2022-09-13T01:50:40;99001.91;;;17.02;100.00
35045;BME280;21231;48.394;34.964;2022-09-13T01:53:36;98998.38;;;16.97;100.00
35045;BME280;21231;48.394;34.964;2022-09-13T01:56:38;98996.66;;;16.99;100.00
35045;BME280;21231;48.394;34.964;2022-09-13T01:59:45;99001.91;;;17.02;100.00
35045;BME280;21231;48.394;34.964;2022-09-13T02:02:47;99003.72;;;17.10;100.00
35045;BME280;21231;48.394;34.964;2022-09-13T02:05:55;99000.28;;;17.12;100.00
35045;BME280;21231;48.394;34.964;2022-09-13T02:09:01;99003.75;;;17.13;100.00
35045;BME280;21231;48.394;34.964;2022-09-13T02:11:54;99000.25;;;17.11;100.00
35045;BME280;21231;48.394;34.964;2022-09-13T02:14:44;98990.75;;;17.14;100.00
35045;BME280;21231;48.394;34.964;2022-09-13T02:17:37;98995.09;;;17.14;100.00
35045;BME280;21231;48.394;34.964;2022-09-13T02:20:27;98989.06;;;17.18;100.00
35045;BME280;21231;48.394;34.964;2022-09-13T02:26:44;98980.41;;;17.21;100.00
35045;BME280;21231;48.394;34.964;2022-09-13T02:29:35;98986.41;;;17.13;100.00
35045;BME280;21231;48.394;34.964;2022-09-13T02:35:33;98987.25;;;17.12;100.00
35045;BME280;21231;48.394;34.964;2022-09-13T02:38:26;98982.13;;;17.20;100.00
35045;BME280;21231;48.394;34.964;2022-09-13T02:41:42;98993.41;;;17.21;100.00
35045;BME280;21231;48.394;34.964;2022-09-13T02:44:35;98987.31;;;17.15;100.00
35045;BME280;21231;48.394;34.964;2022-09-13T02:59:41;98982.00;;;17.05;100.00
35045;BME280;21231;48.394;34.964;2022-09-13T03:02:31;98983.75;;;17.09;100.00
35045;BME280;21231;48.394;34.964;2022-09-13T03:05:19;98980.28;;;17.10;100.00
35045;BME280;21231;48.394;34.964;2022-09-13T03:08:07;98975.13;;;17.11;100.00
35045;BME280;21231;48.394;34.964;2022-09-13T03:20:10;98959.41;;;17.03;100.00
35045;BME280;21231;48.394;34.964;2022-09-13T03:23:18;98965.47;;;17.02;100.00
35045;BME280;21231;48.394;34.964;2022-09-13T03:35:27;98957.69;;;17.04;100.00
35045;BME280;21231;48.394;34.964;2022-09-13T03:38:38;98952.44;;;17.02;100.00
35045;BME280;21231;48.394;34.964;2022-09-13T03:41:33;98951.50;;;16.94;100.00
35045;BME280;21231;48.394;34.964;2022-09-13T03:44:23;98951.44;;;16.86;100.00
35045;BME280;21231;48.394;34.964;2022-09-13T03:47:18;98949.81;;;16.96;100.00
35045;BME280;21231;48.394;34.964;2022-09-13T03:50:07;98956.63;;;16.86;100.00
35045;BME280;21231;48.394;34.964;2022-09-13T03:53:03;54890.28;;;-146.92;100.00
35045;BME280;21231;48.394;34.964;2022-09-13T03:55:53;54890.28;;;-146.92;100.00
35045;BME280;21231;48.394;34.964;2022-09-13T03:58:40;54890.28;;;-146.92;100.00
35045;BME280;21231;48.394;34.964;2022-09-13T04:01:27;54890.28;;;-146.92;100.00
35045;BME280;21231;48.394;34.964;2022-09-13T04:04:16;54890.28;;;-146.92;100.00
35045;BME280;21231;48.394;34.964;2022-09-13T04:07:03;54890.28;;;-146.92;100.00
35045;BME280;21231;48.394;34.964;2022-09-13T04:09:49;98954.03;;;16.86;100.00
35045;BME280;21231;48.394;34.964;2022-09-13T04:12:36;98955.81;;;16.90;100.00
35045;BME280;21231;48.394;34.964;2022-09-13T04:15:24;54890.28;;;-146.92;100.00
35045;BME280;21231;48.394;34.964;2022-09-13T04:18:12;98943.72;;;16.96;100.00
35045;BME280;21231;48.394;34.964;2022-09-13T04:21:03;98945.50;;;17.01;100.00
35045;BME280;21231;48.394;34.964;2022-09-13T04:23:49;98949.91;;;17.07;100.00
35045;BME280;21231;48.394;34.964;2022-09-13T04:26:35;98943.66;;;16.88;100.00
35045;BME280;21231;48.394;34.964;2022-09-13T04:29:24;98953.28;;;17.00;100.00
35045;BME280;21231;48.394;34.964;2022-09-13T04:32:11;98950.78;;;17.09;100.00
35045;BME280;21231;48.394;34.964;2022-09-13T04:34:57;98954.25;;;17.08;100.00
35045;BME280;21231;48.394;34.964;2022-09-13T04:37:43;98949.94;;;17.09;100.00
35045;BME280;21231;48.394;34.964;2022-09-13T04:40:29;98949.94;;;17.09;100.00
35045;BME280;21231;48.394;34.964;2022-09-13T04:43:16;98951.56;;;16.99;100.00
35045;BME280;21231;48.394;34.964;2022-09-13T04:46:02;98947.19;;;16.96;100.00
35045;BME280;21231;48.394;34.964;2022-09-13T04:48:50;98947.28;;;17.06;100.00
35045;BME280;21231;48.394;34.964;2022-09-13T04:51:36;98944.72;;;17.09;100.00
35045;BME280;21231;48.394;34.964;2022-09-13T04:54:22;98952.59;;;17.16;100.00
35045;BME280;21231;48.394;34.964;2022-09-13T04:57:08;98950.91;;;17.22;100.00
35045;BME280;21231;48.394;34.964;2022-09-13T04:59:54;98937.91;;;17.23;100.00
35045;BME280;21231;48.394;34.964;2022-09-13T05:02:40;98940.56;;;17.28;100.00
35045;BME280;21231;48.394;34.964;2022-09-13T05:05:26;98942.25;;;17.24;100.00
35045;BME280;21231;48.394;34.964;2022-09-13T05:08:13;98951.81;;;17.24;100.00
35045;BME280;21231;48.394;34.964;2022-09-13T05:11:04;98942.31;;;17.29;100.00
35045;BME280;21231;48.394;34.964;2022-09-13T05:13:51;98939.72;;;17.31;100.00
35045;BME280;21231;48.394;34.964;2022-09-13T05:16:39;98943.25;;;17.40;100.00
35045;BME280;21231;48.394;34.964;2022-09-13T05:19:26;98942.25;;;17.26;100.00
35045;BME280;21231;48.394;34.964;2022-09-13T05:22:14;98948.28;;;17.20;100.00
35045;BME280;21231;48.394;34.964;2022-09-13T05:25:00;98947.50;;;17.27;100.00
35045;BME280;21231;48.394;34.964;2022-09-13T05:27:46;98942.41;;;17.41;100.00
35045;BME280;21231;48.394;34.964;2022-09-13T05:30:32;98945.03;;;17.46;100.00
35045;BME280;21231;48.394;34.964;2022-09-13T05:33:18;98948.56;;;17.53;100.00
35045;BME280;21231;48.394;34.964;2022-09-13T05:36:05;98945.91;;;17.47;100.00
35045;BME280;21231;48.394;34.964;2022-09-13T05:38:55;98945.75;;;17.29;100.00
35045;BME280;21231;48.394;34.964;2022-09-13T05:42:02;98948.19;;;17.09;100.00
35045;BME280;21231;48.394;34.964;2022-09-13T05:44:48;98950.84;;;17.15;100.00
35045;BME280;21231;48.394;34.964;2022-09-13T05:47:34;98946.47;;;17.10;100.00
35045;BME280;21231;48.394;34.964;2022-09-13T05:50:19;98949.13;;;17.18;100.00
35045;BME280;21231;48.394;34.964;2022-09-13T05:53:26;98952.78;;;17.38;100.00
35045;BME280;21231;48.394;34.964;2022-09-13T05:56:15;98960.00;;;17.74;100.00
35045;BME280;21231;48.394;34.964;2022-09-13T05:59:02;98954.84;;;17.75;100.00
35045;BME280;21231;48.394;34.964;2022-09-13T06:01:48;98954.91;;;17.80;100.00
35045;BME280;21231;48.394;34.964;2022-09-13T06:04:35;98947.06;;;17.83;100.00
35045;BME280;21231;48.394;34.964;2022-09-13T06:07:21;98960.09;;;17.78;100.00
35045;BME280;21231;48.394;34.964;2022-09-13T06:10:09;98956.47;;;17.65;100.00
35045;BME280;21231;48.394;34.964;2022-09-13T06:12:55;98959.88;;;17.53;100.00
35045;BME280;21231;48.394;34.964;2022-09-13T06:15:42;98963.31;;;17.51;100.00
35045;BME280;21231;48.394;34.964;2022-09-13T06:18:28;98969.50;;;17.62;100.00
35045;BME280;21231;48.394;34.964;2022-09-13T06:21:21;98967.72;;;17.57;100.00
35045;BME280;21231;48.394;34.964;2022-09-13T06:24:13;98976.28;;;17.43;100.00
35045;BME280;21231;48.394;34.964;2022-09-13T06:26:59;98977.22;;;17.50;100.00
35045;BME280;21231;48.394;34.964;2022-09-13T06:29:45;98976.34;;;17.55;100.00
35045;BME280;21231;48.394;34.964;2022-09-13T06:32:31;98976.38;;;17.59;100.00
35045;BME280;21231;48.394;34.964;2022-09-13T06:35:19;98981.47;;;17.41;100.00
35045;BME280;21231;48.394;34.964;2022-09-13T06:38:06;54890.28;;;-146.92;100.00
35045;BME280;21231;48.394;34.964;2022-09-13T06:43:53;98976.34;;;17.55;100.00
35045;BME280;21231;48.394;34.964;2022-09-13T06:46:41;98981.72;;;17.71;100.00
35045;BME280;21231;48.394;34.964;2022-09-13T06:49:27;98981.81;;;17.82;100.00
35045;BME280;21231;48.394;34.964;2022-09-13T06:52:14;98970.50;;;17.81;100.00
35045;BME280;21231;48.394;34.964;2022-09-13T06:55:00;98973.19;;;17.92;100.00
35045;BME280;21231;48.394;34.964;2022-09-13T06:57:47;98972.50;;;18.17;100.00
35045;BME280;21231;48.394;34.964;2022-09-13T07:00:35;98967.31;;;18.25;100.00
35045;BME280;21231;48.394;34.964;2022-09-13T07:03:21;98970.72;;;18.16;100.00
35045;BME280;21231;48.394;34.964;2022-09-13T07:06:09;98972.34;;;17.97;100.00
35045;BME280;21231;48.394;34.964;2022-09-13T07:08:57;98974.09;;;17.94;100.00
35045;BME280;21231;48.394;34.964;2022-09-13T07:11:44;98980.03;;;17.76;100.00
35045;BME280;21231;48.394;34.964;2022-09-13T07:14:31;98980.91;;;17.77;100.00
35045;BME280;21231;48.394;34.964;2022-09-13T07:17:18;98975.63;;;17.74;100.00
35045;BME280;21231;48.394;34.964;2022-09-13T07:20:04;98978.22;;;17.69;100.00
35045;BME280;21231;48.394;34.964;2022-09-13T07:22:52;98982.50;;;17.59;100.00
35045;BME280;21231;48.394;34.964;2022-09-13T07:25:38;98984.31;;;17.71;100.00
35045;BME280;21231;48.394;34.964;2022-09-13T07:28:25;98984.22;;;17.59;100.00
35045;BME280;21231;48.394;34.964;2022-09-13T07:31:19;98987.69;;;17.59;100.00
35045;BME280;21231;48.394;34.964;2022-09-13T07:34:21;98989.59;;;17.74;100.00
35045;BME280;21231;48.394;34.964;2022-09-13T07:37:08;98981.91;;;17.93;100.00
35045;BME280;21231;48.394;34.964;2022-09-13T07:39:55;98983.66;;;17.96;100.00
35045;BME280;21231;48.394;34.964;2022-09-13T07:42:44;98975.72;;;17.77;100.00
35045;BME280;21231;48.394;34.964;2022-09-13T07:45:31;98974.13;;;17.99;100.00
35045;BME280;21231;48.394;34.964;2022-09-13T07:48:19;98973.31;;;18.08;100.00
35045;BME280;21231;48.394;34.964;2022-09-13T07:51:08;98983.72;;;18.06;100.00
35045;BME280;21231;48.394;34.964;2022-09-13T07:53:59;98975.63;;;17.74;100.00
35045;BME280;21231;48.394;34.964;2022-09-13T07:56:46;98982.41;;;17.51;100.00
35045;BME280;21231;48.394;34.964;2022-09-13T07:59:40;98970.22;;;17.46;100.00
35045;BME280;21231;48.394;34.964;2022-09-13T08:02:26;98973.72;;;17.51;100.00
35045;BME280;21231;48.394;34.964;2022-09-13T08:05:12;98981.72;;;17.71;100.00
35045;BME280;21231;48.394;34.964;2022-09-13T08:07:59;98977.66;;;18.06;100.00
35045;BME280;21231;48.394;34.964;2022-09-13T08:10:45;98976.78;;;18.12;100.00
35045;BME280;21231;48.394;34.964;2022-09-13T08:13:34;98973.41;;;18.28;100.00
35045;BME280;21231;48.394;34.964;2022-09-13T08:16:22;98971.59;;;18.15;100.00
35045;BME280;21231;48.394;34.964;2022-09-13T08:19:11;98967.31;;;18.25;100.00
35045;BME280;21231;48.394;34.964;2022-09-13T08:21:58;98963.88;;;18.35;100.00
35045;BME280;21231;48.394;34.964;2022-09-13T08:24:44;98965.69;;;18.45;100.00
35045;BME280;21231;48.394;34.964;2022-09-13T08:27:30;98969.22;;;18.68;100.00
35045;BME280;21231;48.394;34.964;2022-09-13T08:30:15;98963.13;;;18.59;100.00
35045;BME280;21231;48.394;34.964;2022-09-13T08:33:03;98957.13;;;18.84;100.00
35045;BME280;21231;48.394;34.964;2022-09-13T08:35:51;98957.22;;;19.26;100.00
35045;BME280;21231;48.394;34.964;2022-09-13T08:38:37;98945.94;;;19.33;100.00
35045;BME280;21231;48.394;34.964;2022-09-13T08:44:44;98937.19;;;19.50;100.00
35045;BME280;21231;48.394;34.964;2022-09-13T08:47:42;98945.91;;;19.38;100.00
35045;BME280;21231;48.394;34.964;2022-09-13T08:50:33;98941.56;;;19.70;100.00
35045;BME280;21231;48.394;34.964;2022-09-13T08:53:25;98937.22;;;19.89;100.00
35045;BME280;21231;48.394;34.964;2022-09-13T09:05:48;98929.25;;;20.34;100.00
35045;BME280;21231;48.394;34.964;2022-09-13T09:08:47;98933.53;;;20.52;100.00
35045;BME280;21231;48.394;34.964;2022-09-13T09:11:52;98930.97;;;20.38;100.00
35045;BME280;21231;48.394;34.964;2022-09-13T09:14:55;98924.97;;;19.85;100.00
35045;BME280;21231;48.394;34.964;2022-09-13T09:23:51;98924.03;;;20.25;100.00
35045;BME280;21231;48.394;34.964;2022-09-13T09:26:38;98922.09;;;20.69;100.00
35045;BME280;21231;48.394;34.964;2022-09-13T09:29:28;98910.34;;;21.32;100.00
35045;BME280;21231;48.394;34.964;2022-09-13T09:35:36;98922.88;;;20.91;100.00
35045;BME280;21231;48.394;34.964;2022-09-13T09:38:36;98929.19;;;20.42;100.00
35045;BME280;21231;48.394;34.964;2022-09-13T09:41:29;98925.59;;;20.68;100.00
35045;BME280;21231;48.394;34.964;2022-09-13T09:44:24;98927.34;;;20.67;100.00
35045;BME280;21231;48.394;34.964;2022-09-13T09:47:17;98926.47;;;20.69;100.00
35045;BME280;21231;48.394;34.964;2022-09-13T09:50:12;98927.25;;;20.82;100.00
35045;BME280;21231;48.394;34.964;2022-09-13T09:53:07;98933.44;;;20.73;100.00
35045;BME280;21231;48.394;34.964;2022-09-13T09:58:49;98930.13;;;20.27;100.00
35045;BME280;21231;48.394;34.964;2022-09-13T10:01:37;98934.44;;;20.40;100.00
35045;BME280;21231;48.394;34.964;2022-09-13T10:04:24;98931.81;;;20.44;100.00
35045;BME280;21231;48.394;34.964;2022-09-13T10:07:32;98930.81;;;20.73;100.00
35045;BME280;21231;48.394;34.964;2022-09-13T10:10:28;98927.94;;;21.20;100.00
35045;BME280;21231;48.394;34.964;2022-09-13T10:13:21;98919.09;;;21.30;100.00
35045;BME280;21231;48.394;34.964;2022-09-13T10:16:25;98923.56;;;21.18;100.00
35045;BME280;21231;48.394;34.964;2022-09-13T10:19:22;98934.09;;;21.08;100.00
35045;BME280;21231;48.394;34.964;2022-09-13T10:22:11;98927.19;;;20.97;100.00
35045;BME280;21231;48.394;34.964;2022-09-13T10:25:22;98914.03;;;21.11;100.00
35045;BME280;21231;48.394;34.964;2022-09-13T10:28:15;98928.13;;;20.88;100.00
35045;BME280;21231;48.394;34.964;2022-09-13T10:31:09;98927.41;;;20.53;100.00
35045;BME280;21231;48.394;34.964;2022-09-13T10:34:05;98928.19;;;20.73;100.00
35045;BME280;21231;48.394;34.964;2022-09-13T10:37:03;98926.38;;;20.90;100.00
35045;BME280;21231;48.394;34.964;2022-09-13T10:40:04;98925.44;;;20.98;100.00
35045;BME280;21231;48.394;34.964;2022-09-13T10:43:03;98923.78;;;20.81;100.00
35045;BME280;21231;48.394;34.964;2022-09-13T10:45:51;98931.66;;;20.78;100.00
35045;BME280;21231;48.394;34.964;2022-09-13T10:48:48;98926.47;;;20.69;100.00
35045;BME280;21231;48.394;34.964;2022-09-13T10:51:41;98933.50;;;20.54;100.00
35045;BME280;21231;48.394;34.964;2022-09-13T10:54:27;98929.25;;;20.31;100.00
35045;BME280;21231;48.394;34.964;2022-09-13T10:57:37;98928.31;;;20.48;100.00
35045;BME280;21231;48.394;34.964;2022-09-13T11:04:28;98917.84;;;20.48;100.00
35045;BME280;21231;48.394;34.964;2022-09-13T11:20:42;98919.94;;;21.37;100.00
35045;BME280;21231;48.394;34.964;2022-09-13T11:29:41;98909.63;;;21.15;100.00
35045;BME280;21231;48.394;34.964;2022-09-13T11:36:13;98917.66;;;20.82;100.00
35045;BME280;21231;48.394;34.964;2022-09-13T11:45:19;98921.16;;;20.83;100.00
35045;BME280;21231;48.394;34.964;2022-09-13T11:57:18;98926.41;;;20.75;100.00
35045;BME280;21231;48.394;34.964;2022-09-13T12:00:26;98918.63;;;20.70;100.00
35045;BME280;21231;48.394;34.964;2022-09-13T12:03:40;98919.34;;;20.97;100.00
35045;BME280;21231;48.394;34.964;2022-09-13T12:06:40;98917.72;;;20.73;100.00
35045;BME280;21231;48.394;34.964;2022-09-13T12:09:32;98915.13;;;20.68;100.00
35045;BME280;21231;48.394;34.964;2022-09-13T12:12:21;98913.50;;;20.47;100.00
35045;BME280;21231;48.394;34.964;2022-09-13T12:15:31;98913.44;;;20.59;100.00
35045;BME280;21231;48.394;34.964;2022-09-13T12:18:27;98912.41;;;20.90;100.00
35045;BME280;21231;48.394;34.964;2022-09-13T12:21:24;98901.06;;;20.89;100.00
35045;BME280;21231;48.394;34.964;2022-09-13T12:24:15;98907.19;;;20.84;100.00
35045;BME280;21231;48.394;34.964;2022-09-13T12:27:10;98912.44;;;20.80;100.00
35045;BME280;21231;48.394;34.964;2022-09-13T12:30:05;98909.69;;;21.04;100.00
35045;BME280;21231;48.394;34.964;2022-09-13T12:32:52;98912.38;;;20.95;100.00
35045;BME280;21231;48.394;34.964;2022-09-13T12:35:58;98914.31;;;20.55;100.00
35045;BME280;21231;48.394;34.964;2022-09-13T12:48:27;98917.66;;;20.84;100.00
35045;BME280;21231;48.394;34.964;2022-09-13T13:00:23;98930.03;;;20.47;100.00
35045;BME280;21231;48.394;34.964;2022-09-13T13:03:16;98924.88;;;20.32;100.00
35045;BME280;21231;48.394;34.964;2022-09-13T13:06:17;98937.88;;;20.47;100.00
35045;BME280;21231;48.394;34.964;2022-09-13T13:12:36;98926.63;;;20.28;100.00
35045;BME280;21231;48.394;34.964;2022-09-13T13:27:33;98937.16;;;20.12;100.00
35045;BME280;21231;48.394;34.964;2022-09-13T13:33:28;98925.81;;;20.13;100.00
35045;BME280;21231;48.394;34.964;2022-09-13T13:36:24;98924.03;;;20.17;100.00
35045;BME280;21231;48.394;34.964;2022-09-13T13:42:24;98922.34;;;20.08;100.00
35045;BME280;21231;48.394;34.964;2022-09-13T13:45:26;98929.31;;;20.05;100.00
35045;BME280;21231;48.394;34.964;2022-09-13T13:48:13;98925.88;;;19.92;100.00
35045;BME280;21231;48.394;34.964;2022-09-13T13:51:14;98918.03;;;19.95;100.00
35045;BME280;21231;48.394;34.964;2022-09-13T13:54:28;98930.22;;;19.83;100.00
35045;BME280;21231;48.394;34.964;2022-09-13T14:00:28;98926.72;;;19.83;100.00
35045;BME280;21231;48.394;34.964;2022-09-13T14:06:15;98937.19;;;19.73;100.00
35045;BME280;21231;48.394;34.964;2022-09-13T14:12:26;98933.72;;;19.59;100.00
35045;BME280;21231;48.394;34.964;2022-09-13T14:15:24;98938.09;;;19.43;100.00
35045;BME280;21231;48.394;34.964;2022-09-13T14:18:28;98943.31;;;19.27;100.00
35045;BME280;21231;48.394;34.964;2022-09-13T14:21:22;98934.59;;;19.23;100.00
35045;BME280;21231;48.394;34.964;2022-09-13T14:24:22;98946.78;;;19.07;100.00
35045;BME280;21231;48.394;34.964;2022-09-13T14:27:35;98945.03;;;19.02;100.00
35045;BME280;21231;48.394;34.964;2022-09-13T14:30:25;98945.03;;;19.02;100.00
35045;BME280;21231;48.394;34.964;2022-09-13T14:33:22;98945.00;;;18.98;100.00
35045;BME280;21231;48.394;34.964;2022-09-13T14:36:19;98938.88;;;18.89;100.00
35045;BME280;21231;48.394;34.964;2022-09-13T14:39:07;98946.66;;;18.76;100.00
35045;BME280;21231;48.394;34.964;2022-09-13T14:42:02;98948.41;;;18.74;100.00
35045;BME280;21231;48.394;34.964;2022-09-13T14:44:53;98949.19;;;18.54;100.00
35045;BME280;21231;48.394;34.964;2022-09-13T14:47:48;98957.91;;;18.58;100.00
35045;BME280;21231;48.394;34.964;2022-09-13T14:50:39;98958.78;;;18.62;100.00
35045;BME280;21231;48.394;34.964;2022-09-13T14:53:28;98968.34;;;18.58;100.00
35045;BME280;21231;48.394;34.964;2022-09-13T14:56:28;98970.06;;;18.51;100.00
35045;BME280;21231;48.394;34.964;2022-09-13T15:02:20;98974.31;;;18.32;100.00
35045;BME280;21231;48.394;34.964;2022-09-13T15:05:12;98982.09;;;18.26;100.00
35045;BME280;21231;48.394;34.964;2022-09-13T15:11:32;98989.81;;;18.12;100.00
35045;BME280;21231;48.394;34.964;2022-09-13T15:17:12;98990.63;;;18.01;100.00
35045;BME280;21231;48.394;34.964;2022-09-13T15:20:04;98988.97;;;18.10;100.00
35045;BME280;21231;48.394;34.964;2022-09-13T15:22:51;98992.44;;;18.12;100.00
35045;BME280;21231;48.394;34.964;2022-09-13T15:25:38;99003.69;;;18.03;100.00
35045;BME280;21231;48.394;34.964;2022-09-13T15:28:27;99003.63;;;17.92;100.00
35045;BME280;21231;48.394;34.964;2022-09-13T15:31:41;98994.91;;;17.91;100.00
35045;BME280;21231;48.394;34.964;2022-09-13T15:34:28;98992.34;;;17.94;100.00
35045;BME280;21231;48.394;34.964;2022-09-13T15:37:14;99002.69;;;17.85;100.00
35045;BME280;21231;48.394;34.964;2022-09-13T15:40:21;99000.94;;;17.83;100.00
35045;BME280;21231;48.394;34.964;2022-09-13T15:43:07;99001.78;;;17.78;100.00
35045;BME280;21231;48.394;34.964;2022-09-13T15:45:55;99000.81;;;17.70;100.00
35045;BME280;21231;48.394;34.964;2022-09-13T15:48:57;99006.88;;;17.69;100.00
35045;BME280;21231;48.394;34.964;2022-09-13T15:51:53;99013.81;;;17.67;100.00
35045;BME280;21231;48.394;34.964;2022-09-13T15:54:40;99011.06;;;17.53;100.00
35045;BME280;21231;48.394;34.964;2022-09-13T15:57:28;99017.19;;;17.55;100.00
35045;BME280;21231;48.394;34.964;2022-09-13T16:00:22;99025.03;;;17.58;100.00
35045;BME280;21231;48.394;34.964;2022-09-13T16:03:25;99023.28;;;17.59;100.00
35045;BME280;21231;48.394;34.964;2022-09-13T16:06:25;99025.81;;;17.51;100.00
35045;BME280;21231;48.394;34.964;2022-09-13T16:09:21;99025.81;;;17.51;100.00
35045;BME280;21231;48.394;34.964;2022-09-13T16:12:08;99033.63;;;17.51;100.00
35045;BME280;21231;48.394;34.964;2022-09-13T16:14:54;99041.34;;;17.40;100.00
35045;BME280;21231;48.394;34.964;2022-09-13T16:17:40;99056.03;;;17.33;100.00
35045;BME280;21231;48.394;34.964;2022-09-13T16:20:27;99065.66;;;17.39;100.00
35045;BME280;21231;48.394;34.964;2022-09-13T16:23:13;99062.00;;;17.24;100.00
35045;BME280;21231;48.394;34.964;2022-09-13T16:26:03;99073.38;;;17.33;100.00
35045;BME280;21231;48.394;34.964;2022-09-13T16:28:53;99069.91;;;17.32;100.00
35045;BME280;21231;48.394;34.964;2022-09-13T16:31:40;99081.06;;;17.22;100.00
35045;BME280;21231;48.394;34.964;2022-09-13T16:34:26;99086.13;;;17.09;100.00
35045;BME280;21231;48.394;34.964;2022-09-13T16:37:15;99084.38;;;17.08;100.00
35045;BME280;21231;48.394;34.964;2022-09-13T16:40:03;99098.06;;;16.92;100.00
35045;BME280;21231;48.394;34.964;2022-09-13T16:42:50;99101.56;;;16.94;100.00
35045;BME280;21231;48.394;34.964;2022-09-13T16:45:40;99105.69;;;16.76;100.00
35045;BME280;21231;48.394;34.964;2022-09-13T16:48:31;99104.56;;;16.60;100.00
35045;BME280;21231;48.394;34.964;2022-09-13T16:51:17;99117.47;;;16.54;100.00
35045;BME280;21231;48.394;34.964;2022-09-13T16:54:05;99116.38;;;16.41;100.00
35045;BME280;21231;48.394;34.964;2022-09-13T16:56:55;99128.63;;;16.48;100.00
35045;BME280;21231;48.394;34.964;2022-09-13T16:59:42;99137.09;;;16.34;100.00
35045;BME280;21231;48.394;34.964;2022-09-13T17:02:28;99134.25;;;16.17;100.00
35045;BME280;21231;48.394;34.964;2022-09-13T17:08:26;99142.56;;;15.97;100.00
35045;BME280;21231;48.394;34.964;2022-09-13T17:11:14;99148.72;;;16.03;100.00
35045;BME280;21231;48.394;34.964;2022-09-13T17:14:06;99151.91;;;15.88;100.00
35045;BME280;21231;48.394;34.964;2022-09-13T17:16:54;99155.19;;;15.77;100.00
35045;BME280;21231;48.394;34.964;2022-09-13T17:19:42;99153.34;;;15.70;100.00
35045;BME280;21231;48.394;34.964;2022-09-13T17:22:29;99155.91;;;15.68;100.00
35045;BME280;21231;48.394;34.964;2022-09-13T17:25:16;99149.53;;;15.52;100.00
35045;BME280;21231;48.394;34.964;2022-09-13T17:28:02;99151.88;;;15.40;100.00
35045;BME280;21231;48.394;34.964;2022-09-13T17:30:48;99149.94;;;15.28;100.00
35045;BME280;21231;48.394;34.964;2022-09-13T17:33:34;99154.94;;;15.21;100.00
35045;BME280;21231;48.394;34.964;2022-09-13T17:36:20;99157.34;;;15.12;100.00
35045;BME280;21231;48.394;34.964;2022-09-13T17:39:10;99162.47;;;15.07;100.00
35045;BME280;21231;48.394;34.964;2022-09-13T17:41:57;99171.03;;;15.03;100.00
35045;BME280;21231;48.394;34.964;2022-09-13T17:44:45;99165.78;;;15.02;100.00
35045;BME280;21231;48.394;34.964;2022-09-13T17:47:31;99168.19;;;14.92;100.00
35045;BME280;21231;48.394;34.964;2022-09-13T17:50:17;99172.44;;;14.90;100.00
35045;BME280;21231;48.394;34.964;2022-09-13T17:53:04;99175.94;;;14.91;100.00
35045;BME280;21231;48.394;34.964;2022-09-13T17:55:50;99171.69;;;14.94;100.00
35045;BME280;21231;48.394;34.964;2022-09-13T17:58:36;99170.91;;;14.99;100.00
35045;BME280;21231;48.394;34.964;2022-09-13T18:01:22;99173.63;;;15.03;100.00